Tiempo atmosférico en la estación meteorológica de Fresno de Cantiespino, Segovia (993 m.)



Fecha
DESCASC
Temp. máxima en grados centígrados (hora)
DESCASC
Temp. mínima en grados centígrados (hora)
DESCASC
Temp. media en grados centígrados
DESCASC
Racha de viento máxima en m/sg (hora)
DESCASC
Velocidad máxima media en intervalos de 10 minutos(hora)
DESCASC
Precipitaciones diarias en mm
DESCASC
Precipitaciones de 00:00 a 06:00 en mm
DESCASC
Precipitaciones de 06:00 a 12:00 en mm
DESCASC
Precipitaciones de 12:00 a 18:00 en mm
DESCASC
Precipitaciones de 18:00 a 24:00 en mm
DESCASC

Gráficas

Temp. máximas Temp. mínimas Temp. medias Precipitaciones Rachas de viento máximas Velocidades máximas media en intervalos de 10 minutos

Datos horarios

Fecha y hora oficial Temperatura (ºC) Velocidad del viento (km/h) Dirección del viento Racha (km/h) Dirección de racha Precipitación (mm) Presión (hPa) Tendencia (hPa) Humedad (%)
2020-01-19 23:00:00 -2.9 7 Nordeste 15 Norte 0 -- -- 79
2020-01-19 22:00:00 -1.8 12 Nordeste 28 Norte 0 -- -- 74
2020-01-19 21:00:00 -0.8 24 Norte 42 Norte 0 -- -- 68
2020-01-19 20:00:00 -0.3 34 Norte 44 Norte 0 -- -- 65
2020-01-19 19:00:00 0.4 32 Norte 43 Norte 0 -- -- 63
2020-01-19 18:00:00 1.5 32 Norte 55 Norte 0 -- -- 63
2020-01-19 17:00:00 3.4 39 Norte 53 Norte 0 -- -- 58
2020-01-19 16:00:00 4.9 39 Norte 53 Norte 0 -- -- 54
2020-01-19 15:00:00 5.3 37 Norte 54 Norte 0 -- -- 56
2020-01-19 14:00:00 5.2 46 Norte 56 Norte 0 -- -- 55
2020-01-19 13:00:00 5.3 38 Norte 53 Norte 0 -- -- 66
2020-01-19 12:00:00 4.6 38 Norte 53 Norte 0 -- -- 62
2020-01-19 11:00:00 3.4 31 Nordeste 52 Norte 0 -- -- 69
2020-01-19 10:00:00 2.5 37 Norte 47 Norte 0 -- -- 80
2020-01-19 09:00:00 2.3 24 Norte 38 Norte 0 -- -- 91
2020-01-19 08:00:00 2.6 27 Norte 39 Noroeste 0 -- -- 93
2020-01-19 07:00:00 2.8 19 Noroeste 40 Norte 0.2 -- -- 93
2020-01-19 06:00:00 2.6 12 Noroeste 19 Noroeste 0 -- -- 94
2020-01-19 05:00:00 2.5 10 Norte 15 Norte 0.2 -- -- 94
2020-01-19 04:00:00 2.3 6 Noroeste 12 Noroeste 0 -- -- 93
2020-01-19 03:00:00 2.8 9 Noroeste 14 Oeste 0 -- -- 93
2020-01-19 02:00:00 3.2 7 Oeste 13 Oeste 0 -- -- 91
2020-01-19 01:00:00 3.3 11 Oeste 20 Oeste 0 -- -- 93
2020-01-19 00:00:00 4.4 8 Noroeste 15 Noroeste 0 -- -- 88
2020-01-18 23:00:00 3.5 5 Oeste 14 Oeste 0 -- -- 92
2020-01-18 22:00:00 4.8 9 Noroeste 27 Noroeste 0 -- -- 87
2020-01-18 21:00:00 5.6 11 Oeste 32 Oeste 0 -- -- 90
2020-01-18 20:00:00 6.1 32 Oeste 55 Oeste 3.2 -- -- 87
2020-01-18 19:00:00 9.1 22 Sudoeste 37 Sudoeste 0 -- -- 79
2020-01-18 18:00:00 9.3 14 Sudoeste 27 Sur 0 -- -- 78
2020-01-18 17:00:00 9.5 22 Sudoeste 38 Sudoeste 0 -- -- 79
2020-01-18 16:00:00 9.6 22 Sudoeste 32 Sudoeste 0.2 -- -- 79
2020-01-18 15:00:00 9 17 Sudoeste 30 Sudoeste 0 -- -- 90
2020-01-18 14:00:00 9 14 Sudoeste 27 Sudoeste 0 -- -- 89
2020-01-18 13:00:00 7.1 16 Sudoeste 28 Sudoeste 0 -- -- 91
2020-01-18 12:00:00 4.9 0 Calma 8 Norte 0 -- -- 91
2020-01-18 11:00:00 2.9 3 Nordeste 12 Nordeste 0 -- -- 91
2020-01-18 10:00:00 2.5 6 Nordeste 11 Nordeste 0 -- -- 93
2020-01-18 09:00:00 1.2 6 Sudoeste 9 Sur 0 -- -- 93
2020-01-18 08:00:00 0.7 2 Este 5 Este 0 -- -- 93
2020-01-18 07:00:00 0.4 0 Calma 8 Norte 0 -- -- 92
2020-01-18 06:00:00 0 0 Calma 5 Sudoeste 0 -- -- 92
2020-01-18 05:00:00 0.3 5 Oeste 10 Oeste 0 -- -- 90
2020-01-18 04:00:00 -0.6 6 Sur 10 Sur 0 -- -- 93
2020-01-18 03:00:00 -1 5 Sudoeste 17 Oeste 0 -- -- 94
2020-01-18 02:00:00 0.3 5 Noroeste 14 Noroeste 0 -- -- 93
2020-01-18 01:00:00 -0.1 2 Este 4 Este 0 -- -- 94
2020-01-18 00:00:00 0 0 Calma 5 Nordeste 0 -- -- 93
2020-01-17 23:00:00 0.4 3 Sur 9 Sur 0 -- -- 92
2020-01-17 22:00:00 0.8 8 Sur 14 Sudoeste 0 -- -- 91
2020-01-17 21:00:00 1.2 11 Sudoeste 14 Sudoeste 0 -- -- 92
2020-01-17 20:00:00 2.3 5 Sur 11 Sudoeste 0 -- -- 85
2020-01-17 19:00:00 4.2 5 Sudoeste 14 Oeste 0 -- -- 82
2020-01-17 18:00:00 6.3 8 Oeste 28 Oeste 0 -- -- 75
2020-01-17 17:00:00 7.8 19 Oeste 31 Oeste 0 -- -- 67
2020-01-17 16:00:00 7.6 21 Oeste 35 Oeste 0 -- -- 67
2020-01-17 15:00:00 7 22 Oeste 39 Oeste 0 -- -- 72
2020-01-17 14:00:00 7.6 27 Oeste 43 Oeste 0 -- -- 74
2020-01-17 13:00:00 6.4 24 Oeste -- -- -- -- -- 84
2020-01-17 12:00:00 -- 23 Sudoeste 36 Oeste 0 -- -- --
2020-01-17 11:00:00 5.1 19 Oeste 33 Oeste 0 -- -- 92
2020-01-17 10:00:00 4.8 19 Sudoeste 31 Oeste 0.2 -- -- 93
2020-01-17 09:00:00 4.6 12 Oeste 28 Oeste 0.2 -- -- 92
2020-01-17 08:00:00 4.7 14 Sudoeste 25 Sudoeste 0 -- -- 90
2020-01-17 07:00:00 5.3 12 Sudoeste 25 Sudoeste 0 -- -- 82
2020-01-17 06:00:00 5.3 17 Sudoeste 30 Sudoeste 0 -- -- 83
2020-01-17 05:00:00 5.1 16 Sudoeste 28 Sudoeste 0 -- -- 85
2020-01-17 04:00:00 4.2 12 Sudoeste 16 Sudoeste 0 -- -- 91
2020-01-17 03:00:00 4.3 7 Sudoeste 16 Sudoeste 0 -- -- 90
2020-01-17 02:00:00 5.4 11 Sudoeste 18 Sudoeste 0 -- -- 90
2020-01-17 01:00:00 5.4 9 Sur 29 Sudoeste 0.6 -- -- 89
2020-01-17 00:00:00 6.8 16 Sudoeste 36 Sudoeste 0.4 -- -- 81
2020-01-16 23:00:00 8.1 15 Sudoeste 30 Sudoeste 0 -- -- 68
2020-01-16 22:00:00 8.2 16 Sudoeste 31 Sur 0 -- -- 65
2020-01-16 21:00:00 8.3 16 Sudoeste 36 Sudoeste 0 -- -- 62
2020-01-16 20:00:00 8.5 18 Sur 34 Sur 0 -- -- 60
2020-01-16 19:00:00 7.8 18 Sudoeste 36 Sur 0 -- -- 64
2020-01-16 18:00:00 8.5 24 Sur 40 Sur 0 -- -- 64
2020-01-16 17:00:00 11 21 Sudoeste 41 Sur 0 -- -- 53
2020-01-16 16:00:00 12.4 24 Sudoeste 42 Sur 0 -- -- 54
2020-01-16 15:00:00 12.9 24 Sudoeste 42 Sudoeste 0 -- -- 55
2020-01-16 14:00:00 12.9 22 Sur 36 Sur 0 -- -- 58
2020-01-16 13:00:00 11.1 17 Sudoeste 30 Sudoeste 0 -- -- 71
2020-01-16 12:00:00 5.8 6 Nordeste 10 Norte 0 -- -- 95
2020-01-16 11:00:00 3.3 7 Norte 11 Norte 0 -- -- 98
2020-01-16 10:00:00 0.5 0 Calma 8 Sur 0 -- -- 98
2020-01-16 09:00:00 -1.6 6 Sudoeste 9 Sur 0 -- -- 99
2020-01-16 08:00:00 -1.5 2 Sudoeste 5 Sur 0 -- -- 98
2020-01-16 07:00:00 -1.7 6 Sudoeste 8 Sur 0 -- -- 97
2020-01-16 06:00:00 -1.2 4 Noroeste 8 Noroeste 0 -- -- 97
2020-01-16 05:00:00 -0.8 5 Sur 9 Sur 0 -- -- 97
2020-01-16 04:00:00 -0.1 6 Oeste 12 Oeste 0 -- -- 97
2020-01-16 03:00:00 0 3 Sur 7 Sudoeste 0 -- -- 95
2020-01-16 02:00:00 1.2 3 Sur 5 Sur 0 -- -- 94
2020-01-16 01:00:00 3 0 Calma 8 Sur 0 -- -- 96
2020-01-16 00:00:00 2.6 4 Sur 8 Sudoeste 0 -- -- 93
2020-01-15 23:00:00 4.5 3 Sur 8 Sudoeste 0 -- -- 92
2020-01-15 22:00:00 5.4 4 Sudoeste 14 Oeste 0 -- -- 91
2020-01-15 21:00:00 5.5 2 Sur 6 Sudoeste 0 -- -- 87
2020-01-15 20:00:00 5.9 4 Sur 8 Sudoeste 0 -- -- 84
2020-01-15 19:00:00 6.7 4 Sur 5 Sudoeste 0 -- -- 82
2020-01-15 18:00:00 8.5 5 Sudoeste 19 Oeste 0 -- -- 75
2020-01-15 17:00:00 9.9 15 Oeste 24 Sudoeste 0 -- -- 72
2020-01-15 16:00:00 9.5 12 Sudoeste 23 Sudoeste 0 -- -- 73
2020-01-15 15:00:00 8.7 10 Sudoeste 17 Sudoeste 0 -- -- 74
2020-01-15 14:00:00 9.3 11 Sudoeste 19 Sur 0 -- -- 73
2020-01-15 13:00:00 9.3 13 Sudoeste 33 Oeste 0 -- -- 70
2020-01-15 12:00:00 9.2 12 Sudoeste 21 Sudoeste 0 -- -- 69
2020-01-15 11:00:00 2.7 2 Norte 5 Nordeste 0 -- -- 89
2020-01-15 10:00:00 1 4 Nordeste 14 Sur 0 -- -- 91
2020-01-15 09:00:00 0 6 Sudoeste 10 Sudoeste 0 -- -- 95
2020-01-15 08:00:00 -0.8 4 Sudoeste 8 Sudoeste 0 -- -- 92
2020-01-15 07:00:00 -0.9 0 Calma 9 Norte 0 -- -- 91
2020-01-15 06:00:00 0.4 10 Sudoeste 15 Sudoeste 0 -- -- 96
2020-01-15 05:00:00 -1.5 2 Sur 8 Sur 0 -- -- 93
2020-01-15 04:00:00 -1.2 2 Noroeste 8 Sur 0 -- -- 92
2020-01-15 03:00:00 -0.4 2 Sudoeste 8 Sur 0 -- -- 92
2020-01-15 02:00:00 0.3 3 Sudoeste 12 Oeste 0 -- -- 90
2020-01-15 01:00:00 0 6 Sur 10 Sudoeste 0 -- -- 92
2020-01-15 00:00:00 -1.3 0 Calma 6 Sudoeste 0 -- -- 90
2020-01-14 23:00:00 -1.1 5 Sudoeste 7 Sur 0 -- -- 91
2020-01-14 22:00:00 -0.7 0 Calma 6 Sur 0 -- -- 89
2020-01-14 21:00:00 1.8 4 Sudoeste 8 Sudoeste 0 -- -- 81
2020-01-14 20:00:00 2 9 Sur 15 Sur 0 -- -- 86
2020-01-14 19:00:00 1 6 Sur 9 Sur 0 -- -- 84
2020-01-14 18:00:00 5.9 6 Sudoeste 19 Sudoeste 0 -- -- 70
2020-01-14 17:00:00 7.8 14 Sudoeste 27 Oeste 0 -- -- 65
2020-01-14 16:00:00 7.2 15 Sudoeste 26 Sudoeste 0 -- -- 67
2020-01-14 15:00:00 7 15 Sudoeste 27 Sudoeste 0 -- -- 68
2020-01-14 14:00:00 5.9 15 Sudoeste 26 Sudoeste 0 -- -- 69
2020-01-14 13:00:00 5 12 Sudoeste 22 Sudoeste 0 -- -- 71
2020-01-14 12:00:00 2.7 12 Sur 21 Sudoeste 0 -- -- 84
2020-01-14 11:00:00 0.5 10 Sudoeste 14 Sudoeste 0 -- -- 92
2020-01-14 10:00:00 -1.9 4 Sudoeste 8 Sudoeste 0 -- -- 96
2020-01-14 09:00:00 -4.5 5 Sudoeste 8 Sur 0 -- -- 95
2020-01-14 08:00:00 -5.5 3 Sudoeste 5 Sudoeste 0 -- -- 93
2020-01-14 07:00:00 -5.5 6 Sur 6 Sur 0 -- -- 92
2020-01-14 06:00:00 -4.6 2 Sudeste 9 Sur 0 -- -- 90
2020-01-14 05:00:00 -4.2 8 Sur 11 Sur 0 -- -- 91
2020-01-14 04:00:00 -3.1 2 Norte 10 Sudoeste 0 -- -- 87
2020-01-14 03:00:00 -0.1 9 Sudoeste 16 Sur 0 -- -- 78
2020-01-14 02:00:00 0.6 10 Sudoeste 22 Sur 0 -- -- 76
2020-01-14 01:00:00 0.7 12 Sudoeste 26 Sudoeste 0 -- -- 76
2020-01-14 00:00:00 -0.3 14 Sudoeste 23 Sudoeste 0 -- -- 80
2020-01-13 23:00:00 -4.3 4 Sur 8 Sur 0 -- -- 88
2020-01-13 22:00:00 -3.9 8 Sudoeste 12 Sur 0 -- -- 87
2020-01-13 21:00:00 -3.5 8 Sudoeste 11 Sudoeste 0 -- -- 88
2020-01-13 20:00:00 -2.5 7 Sudoeste 9 Sudoeste 0 -- -- 86
2020-01-13 19:00:00 -0.8 8 Sur 9 Sur 0 -- -- 82
2020-01-13 18:00:00 4.2 4 Sudoeste 16 Oeste 0 -- -- 67
2020-01-13 17:00:00 6.8 9 Oeste 21 Oeste 0 -- -- 60
2020-01-13 16:00:00 6.6 15 Oeste 29 Oeste 0 -- -- 56
2020-01-13 15:00:00 7.2 19 Sudoeste 33 Sudoeste 0 -- -- 54
2020-01-13 14:00:00 7.1 19 Sudoeste 31 Sudoeste 0 -- -- 54
2020-01-13 13:00:00 6.6 22 Sudoeste 33 Sudoeste 0 -- -- 58
2020-01-13 12:00:00 4.8 12 Sudoeste 21 Sudoeste 0 -- -- 63
2020-01-13 11:00:00 0.6 4 Noroeste 8 Noroeste 0 -- -- 83
2020-01-13 10:00:00 -3.3 3 Sudoeste 6 Sur 0 -- -- 92
2020-01-13 09:00:00 -5.9 4 Sudoeste 8 Sur 0 -- -- 92
2020-01-13 08:00:00 -6 2 Sur 4 Sur 0 -- -- 91
2020-01-13 07:00:00 -5.6 0 Calma 9 Sur 0 -- -- 91
2020-01-13 06:00:00 -6 8 Sudoeste 10 Sur 0 -- -- 93
2020-01-13 05:00:00 -6 4 Sur 7 Sur 0 -- -- 91
2020-01-13 04:00:00 -6 5 Sur 8 Sur 0 -- -- 92
2020-01-13 03:00:00 -5.8 5 Sur 8 Sur 0 -- -- 91
2020-01-13 02:00:00 -5.4 6 Sur 7 Sur 0 -- -- 90
2020-01-13 01:00:00 -4.9 3 Sudoeste 5 Sur 0 -- -- 90
2020-01-13 00:00:00 -4.2 0 Calma 3 Sudoeste 0 -- -- 88
2020-01-12 23:00:00 -2.8 0 Calma 7 Sur 0 -- -- 85
2020-01-12 22:00:00 -2.1 6 Sur 10 Sur 0 -- -- 82
2020-01-12 21:00:00 -2.7 6 Sur 8 Sudoeste 0 -- -- 86
2020-01-12 20:00:00 -1.4 9 Sur 11 Sur 0 -- -- 85
2020-01-12 19:00:00 0.2 4 Sur 6 Sur 0 -- -- 80
2020-01-12 18:00:00 5 5 Nordeste 8 Norte 0 -- -- 68
2020-01-12 17:00:00 7.3 4 Nordeste 12 Norte 0 -- -- 58
2020-01-12 16:00:00 10 8 Oeste 17 Oeste 0 -- -- 41
2020-01-12 15:00:00 9.6 9 Oeste 17 Sudoeste 0 -- -- 42
2020-01-12 14:00:00 8.2 8 Oeste 13 Oeste 0 -- -- 43
2020-01-12 13:00:00 4.5 3 Norte 5 Norte 0 -- -- 61
2020-01-12 12:00:00 0.5 2 Nordeste 8 Norte 0 -- -- 80
2020-01-12 11:00:00 -1.8 3 Nordeste 4 Este 0 -- -- 83
2020-01-12 10:00:00 -4.4 0 Calma 10 Sudoeste 0 -- -- 89
2020-01-12 09:00:00 -7.6 9 Sudoeste 11 Sudoeste 0 -- -- 88
2020-01-12 08:00:00 -8 3 Sudoeste 7 Sudoeste 0 -- -- 90
2020-01-12 07:00:00 -7.7 0 Calma 8 Sur 0 -- -- 90
2020-01-12 06:00:00 -7.5 5 Sur 8 Sur 0 -- -- 91
2020-01-12 05:00:00 -7.7 5 Sur 6 Sur 0 -- -- 91
2020-01-12 04:00:00 -6.9 0 Calma 3 Norte 0 -- -- 92
2020-01-12 03:00:00 -6.6 2 Sudoeste 6 Sur 0 -- -- 91
2020-01-12 02:00:00 -6.2 0 Calma 6 Sudoeste 0 -- -- 90
2020-01-12 01:00:00 -6.1 5 Sudoeste 7 Sur 0 -- -- 92
2020-01-12 00:00:00 -5.8 6 Sur 7 Sur 0 -- -- 93
2020-01-11 23:00:00 -5.4 2 Nordeste 4 Nordeste 0 -- -- 93
2020-01-11 22:00:00 -5.2 0 Calma 5 Sudoeste 0 -- -- 91
2020-01-11 21:00:00 -4.4 3 Sudoeste 5 Sur 0 -- -- 92
2020-01-11 20:00:00 -2.8 0 Calma 5 Sur 0 -- -- 90
2020-01-11 19:00:00 -0.6 0 Calma 2 Norte 0 -- -- 88
2020-01-11 18:00:00 1.8 3 Nordeste 9 Norte 0 -- -- 84
2020-01-11 17:00:00 6.3 10 Norte 13 Norte 0 -- -- 70
2020-01-11 16:00:00 9.4 4 Oeste 11 Noroeste 0 -- -- 47
2020-01-11 15:00:00 7.4 4 Norte 8 Noroeste 0 -- -- 56
2020-01-11 14:00:00 5.8 3 Norte 8 Noroeste 0 -- -- 70
2020-01-11 13:00:00 4 2 Noroeste 6 Norte 0 -- -- 77
2020-01-11 12:00:00 1.1 2 Norte 6 Norte 0 -- -- 92
2020-01-11 11:00:00 -1.2 3 Nordeste 5 Nordeste 0 -- -- 93
2020-01-11 10:00:00 -3.7 2 Nordeste 4 Sur 0 -- -- 94
2020-01-11 09:00:00 -6.8 2 Sur 3 Sur 0 -- -- 94
2020-01-11 08:00:00 -6.1 0 Calma 3 Sur 0 -- -- 95
2020-01-11 07:00:00 -5.9 3 Sur 4 Sur 0 -- -- 94
2020-01-11 06:00:00 -5 0 Calma 4 Sudoeste 0 -- -- 94
2020-01-11 05:00:00 -4.2 5 Sudoeste 8 Sudoeste 0 -- -- 96
2020-01-11 04:00:00 -3.9 7 Sudoeste 10 Sudoeste 0 -- -- 95
2020-01-11 03:00:00 -4.1 5 Sur 9 Sudoeste 0 -- -- 95
2020-01-11 02:00:00 -3.3 8 Sur 10 Sur 0 -- -- 95
2020-01-11 01:00:00 -3.4 9 Sudoeste 11 Sur 0 -- -- 94
2020-01-11 00:00:00 -3.4 8 Sudoeste 10 Sur 0 -- -- 93
2020-01-10 23:00:00 -2.6 6 Sur 12 Sur 0 -- -- 94
2020-01-10 22:00:00 -1.3 5 Sudoeste 10 Sudoeste 0 -- -- 93
2020-01-10 21:00:00 0.5 5 Oeste 19 Norte 0 -- -- 89
2020-01-10 20:00:00 1.9 10 Norte 19 Noroeste 0 -- -- 88
2020-01-10 19:00:00 3.2 14 Noroeste 18 Noroeste 0 -- -- 82
2020-01-10 18:00:00 4.7 11 Noroeste 26 Norte 0 -- -- 79
2020-01-10 17:00:00 6.2 16 Norte 24 Norte 0 -- -- 71
2020-01-10 16:00:00 6 14 Norte 29 Norte 0 -- -- 68
2020-01-10 15:00:00 6.4 17 Norte 29 Norte 0 -- -- 69
2020-01-10 14:00:00 5.5 16 Norte 30 Noroeste 0 -- -- 71
2020-01-10 13:00:00 4.8 18 Norte 33 Norte 0 -- -- 74
2020-01-10 12:00:00 5 21 Norte 30 Norte 0 -- -- 75
2020-01-10 11:00:00 3.7 13 Norte 18 Norte 0 -- -- 80
2020-01-10 10:00:00 1.9 0 Calma 6 Sur 0 -- -- 90
2020-01-10 09:00:00 1.1 3 Sur 5 Sudoeste 0 -- -- 90
2020-01-10 08:00:00 1.5 3 Oeste 13 Sudoeste 0 -- -- 91
2020-01-10 07:00:00 1.5 8 Sudoeste 14 Sudoeste 0 -- -- 91
2020-01-10 06:00:00 1.3 10 Sudoeste 15 Sudoeste 0 -- -- 92
2020-01-10 05:00:00 1.2 6 Oeste 17 Sudoeste 0 -- -- 91
2020-01-10 04:00:00 1.5 10 Sudoeste 19 Sudoeste 0 -- -- 89
2020-01-10 03:00:00 2.2 8 Sudoeste 23 Oeste 0 -- -- 89
2020-01-10 02:00:00 3.8 12 Sudoeste 22 Sudoeste 0 -- -- 84
2020-01-10 01:00:00 5.1 17 Noroeste 29 Noroeste 0 -- -- 85
2020-01-10 00:00:00 6.4 12 Oeste 32 Oeste 0 -- -- 89
2020-01-09 23:00:00 7.2 14 Oeste 23 Oeste 0 -- -- 91
2020-01-09 22:00:00 7.7 14 Oeste 34 Oeste 0 -- -- 91
2020-01-09 21:00:00 8.2 15 Sudoeste 29 Sudoeste 0 -- -- 91
2020-01-09 20:00:00 8.1 14 Sudoeste 26 Sudoeste 0 -- -- 90
2020-01-09 19:00:00 8.5 14 Oeste 24 Sudoeste 0.2 -- -- 91
2020-01-09 18:00:00 9.5 10 Oeste 27 Sudoeste 0 -- -- 80
2020-01-09 17:00:00 11.3 19 Sudoeste 38 Sudoeste 0 -- -- 74
2020-01-09 16:00:00 11.5 23 Sudoeste 33 Sudoeste 0 -- -- 70
2020-01-09 15:00:00 10.9 21 Sudoeste 37 Sudoeste 0 -- -- 74
2020-01-09 14:00:00 10.8 19 Sudoeste 31 Sudoeste 0 -- -- 68
2020-01-09 13:00:00 9.1 22 Sudoeste 31 Sudoeste 0 -- -- 78
2020-01-09 12:00:00 7.1 22 Oeste 30 Oeste 0 -- -- 77
2020-01-09 11:00:00 6.7 18 Sudoeste 25 Sudoeste 0 -- -- 75
2020-01-09 10:00:00 1.5 4 Sur 7 Sur 0 -- -- 94
2020-01-09 09:00:00 -1.5 2 Nordeste 10 Oeste 0 -- -- 93
2020-01-09 08:00:00 -1.8 7 Sur 9 Sur 0 -- -- 96
2020-01-09 07:00:00 -2 0 Calma 5 Sudoeste 0 -- -- 96
2020-01-09 06:00:00 -2.1 0 Calma 6 Sur 0 -- -- 94
2020-01-09 05:00:00 -1.7 3 Sudoeste 5 Sudoeste 0 -- -- 94
2020-01-09 04:00:00 -1.1 0 Calma 4 Sur 0 -- -- 95
2020-01-09 03:00:00 -1.1 2 Sur 5 Sur 0 -- -- 96
2020-01-09 02:00:00 -1.1 5 Sur 6 Sur 0 -- -- 95
2020-01-09 01:00:00 -0.7 3 Sudoeste 9 Sur 0 -- -- 94
2020-01-09 00:00:00 -0.5 5 Sur 10 Sudoeste 0 -- -- 93
2020-01-08 23:00:00 -0.1 8 Sudoeste 10 Sudoeste 0 -- -- 93
2020-01-08 22:00:00 0.4 9 Sur 11 Sur 0 -- -- 92
2020-01-08 21:00:00 1.4 7 Sudoeste 10 Sur 0 -- -- 91
2020-01-08 20:00:00 2.5 9 Sur 11 Sur 0 -- -- 89
2020-01-08 19:00:00 4.2 7 Sur 11 Sur 0 -- -- 84
2020-01-08 18:00:00 8.2 0 Calma 10 Norte 0 -- -- 76
2020-01-08 17:00:00 11 8 Norte 12 Norte 0 -- -- 68
2020-01-08 16:00:00 11.8 10 Norte 17 Norte 0 -- -- 64
2020-01-08 15:00:00 13.9 4 Norte 12 Oeste 0 -- -- 52
2020-01-08 14:00:00 13.2 8 Oeste 15 Oeste 0 -- -- 46
2020-01-08 13:00:00 11.5 9 Sudoeste 18 Oeste 0 -- -- 40
2020-01-08 12:00:00 7.8 4 Nordeste 11 Sudoeste 0 -- -- 62
2020-01-08 11:00:00 2.8 2 Nordeste 8 Nordeste 0 -- -- 75
2020-01-08 10:00:00 -0.2 0 Calma 7 Sur 0 -- -- 83
2020-01-08 09:00:00 -2.7 4 Sudoeste 5 Sur 0 -- -- 86
2020-01-08 08:00:00 -3 3 Nordeste 8 Sudoeste 0 -- -- 86
2020-01-08 07:00:00 -3 0 Calma 5 Sur 0 -- -- 85
2020-01-08 06:00:00 -3 6 Sudoeste 10 Sur 0 -- -- 85
2020-01-08 05:00:00 -2.9 2 Sur 4 Sur 0 -- -- 88
2020-01-08 04:00:00 -2.7 0 Calma 3 Sudoeste 0 -- -- 87
2020-01-08 03:00:00 -2.4 0 Calma 4 Sur 0 -- -- 89
2020-01-08 02:00:00 -2.2 5 Sudoeste 13 Sudoeste 0 -- -- 87
2020-01-08 01:00:00 -1.6 10 Sudoeste 12 Sudoeste 0 -- -- 81
2020-01-08 00:00:00 -1.9 0 Calma 12 Sudoeste 0 -- -- 86
2020-01-07 23:00:00 -2.3 8 Sudoeste 9 Sur 0 -- -- 88
2020-01-07 22:00:00 -1.7 5 Sur 10 Sudoeste 0 -- -- 85
2020-01-07 21:00:00 -0.3 2 Sudoeste 6 Norte 0 -- -- 82
2020-01-07 20:00:00 0.1 2 Sur 10 Sudoeste 0 -- -- 73
2020-01-07 19:00:00 1 6 Sudoeste 8 Sudoeste 0 -- -- 75
2020-01-07 18:00:00 7.3 0 Calma 10 Oeste 0 -- -- 67
2020-01-07 17:00:00 12.1 8 Sudoeste 19 Oeste 0 -- -- 30
2020-01-07 16:00:00 12.9 13 Oeste 19 Sudoeste 0 -- -- 32
2020-01-07 15:00:00 12.4 13 Oeste 18 Oeste 0 -- -- 34
2020-01-07 14:00:00 11.5 9 Sudoeste 13 Oeste 0 -- -- 41
2020-01-07 13:00:00 7.3 5 Nordeste 6 Norte 0 -- -- 69
2020-01-07 12:00:00 3.9 3 Norte 7 Norte 0 -- -- 71
2020-01-07 11:00:00 1.1 0 Calma 6 Nordeste 0 -- -- 80
2020-01-07 10:00:00 -1.9 0 Calma 5 Sudoeste 0 -- -- 88
2020-01-07 09:00:00 -5.1 5 Sur 8 Sur 0 -- -- 91
2020-01-07 08:00:00 -4.9 3 Sudoeste 8 Sur 0 -- -- 91
2020-01-07 07:00:00 -3.7 0 Calma 9 Sudoeste 0 -- -- 89
2020-01-07 06:00:00 -3.3 5 Sudoeste 8 Sudoeste 0 -- -- 88
2020-01-07 05:00:00 -3.7 3 Sudoeste 10 Sur 0 -- -- 88
2020-01-07 04:00:00 -3.7 6 Sur 9 Sur 0 -- -- 88
2020-01-07 03:00:00 -3.4 8 Sudoeste 10 Sur 0 -- -- 88
2020-01-07 02:00:00 -3.3 4 Sur 8 Sur 0 -- -- 87
2020-01-07 01:00:00 -2.7 7 Sur 9 Sur 0 -- -- 87
2020-01-07 00:00:00 -1.7 2 Sudeste 8 Sudoeste 0 -- -- 83
2020-01-06 23:00:00 -1 5 Sur 7 Sudoeste 0 -- -- 83
2020-01-06 22:00:00 1.3 4 Sudoeste 12 Sudoeste 0 -- -- 73
2020-01-06 21:00:00 0.3 9 Sudoeste 13 Sur 0 -- -- 77
2020-01-06 20:00:00 0.3 2 Sur 10 Sur 0 -- -- 76
2020-01-06 19:00:00 2.3 3 Sur 7 Sudoeste 0 -- -- 68
2020-01-06 18:00:00 7 8 Oeste 14 Sudoeste 0 -- -- 59
2020-01-06 17:00:00 11.3 11 Oeste 18 Oeste 0 -- -- 45
2020-01-06 16:00:00 12 14 Oeste 26 Oeste 0 -- -- 35
2020-01-06 15:00:00 11.6 15 Sudoeste 26 Sudoeste 0 -- -- 43
2020-01-06 14:00:00 10.8 18 Sudoeste 26 Oeste 0 -- -- 44
2020-01-06 13:00:00 9.4 14 Oeste 21 Oeste 0 -- -- 46
2020-01-06 12:00:00 5.2 0 Calma 6 Sur 0 -- -- 87
2020-01-06 11:00:00 0.4 0 Calma 6 Nordeste 0.2 -- -- 94
2020-01-06 10:00:00 -0.9 0 Calma 6 Sur 0 -- -- 97